sensor_id;sensor_type;location;lat;lon;timestamp;temperature;humidity
8994;DHT22;4532;50.886;4.700;2022-09-09T00:04:27;18.20;98.90
8994;DHT22;4532;50.886;4.700;2022-09-09T00:09:56;18.20;98.60
8994;DHT22;4532;50.886;4.700;2022-09-09T00:15:20;18.20;98.50
8994;DHT22;4532;50.886;4.700;2022-09-09T00:20:35;18.20;98.50
8994;DHT22;4532;50.886;4.700;2022-09-09T00:23:20;18.20;98.70
8994;DHT22;4532;50.886;4.700;2022-09-09T00:26:26;18.10;98.70
8994;DHT22;4532;50.886;4.700;2022-09-09T00:29:23;18.10;98.80
8994;DHT22;4532;50.886;4.700;2022-09-09T00:31:57;18.10;98.80
8994;DHT22;4532;50.886;4.700;2022-09-09T00:34:30;18.10;98.80
8994;DHT22;4532;50.886;4.700;2022-09-09T00:37:02;18.10;98.70
8994;DHT22;4532;50.886;4.700;2022-09-09T00:39:41;18.10;98.70
8994;DHT22;4532;50.886;4.700;2022-09-09T00:42:27;18.10;98.80
8994;DHT22;4532;50.886;4.700;2022-09-09T00:48:05;18.10;98.80
8994;DHT22;4532;50.886;4.700;2022-09-09T00:56:13;18.10;98.80
8994;DHT22;4532;50.886;4.700;2022-09-09T00:58:47;18.10;99.00
8994;DHT22;4532;50.886;4.700;2022-09-09T01:01:17;18.00;98.90
8994;DHT22;4532;50.886;4.700;2022-09-09T01:03:55;18.10;98.80
8994;DHT22;4532;50.886;4.700;2022-09-09T01:06:36;18.10;99.00
8994;DHT22;4532;50.886;4.700;2022-09-09T01:12:11;18.10;98.90
8994;DHT22;4532;50.886;4.700;2022-09-09T01:14:49;18.10;99.10
8994;DHT22;4532;50.886;4.700;2022-09-09T01:17:28;18.10;99.00
8994;DHT22;4532;50.886;4.700;2022-09-09T01:20:26;18.10;99.00
8994;DHT22;4532;50.886;4.700;2022-09-09T01:26:09;18.10;99.10
8994;DHT22;4532;50.886;4.700;2022-09-09T01:28:38;18.10;99.30
8994;DHT22;4532;50.886;4.700;2022-09-09T01:34:27;18.10;99.20
8994;DHT22;4532;50.886;4.700;2022-09-09T01:37:08;18.10;99.20
8994;DHT22;4532;50.886;4.700;2022-09-09T01:39:42;18.10;99.20
8994;DHT22;4532;50.886;4.700;2022-09-09T01:42:15;18.10;99.20
8994;DHT22;4532;50.886;4.700;2022-09-09T01:44:45;18.10;99.20
8994;DHT22;4532;50.886;4.700;2022-09-09T01:47:13;18.10;99.10
8994;DHT22;4532;50.886;4.700;2022-09-09T01:49:41;18.10;99.20
8994;DHT22;4532;50.886;4.700;2022-09-09T01:52:11;18.10;99.20
8994;DHT22;4532;50.886;4.700;2022-09-09T01:54:41;18.10;99.30
8994;DHT22;4532;50.886;4.700;2022-09-09T01:57:26;18.10;99.20
8994;DHT22;4532;50.886;4.700;2022-09-09T02:02:48;18.10;99.30
8994;DHT22;4532;50.886;4.700;2022-09-09T02:05:41;18.10;99.20
8994;DHT22;4532;50.886;4.700;2022-09-09T02:08:20;18.10;99.40
8994;DHT22;4532;50.886;4.700;2022-09-09T02:13:22;18.10;99.30
8994;DHT22;4532;50.886;4.700;2022-09-09T02:21:18;18.20;99.40
8994;DHT22;4532;50.886;4.700;2022-09-09T02:23:53;18.20;99.30
8994;DHT22;4532;50.886;4.700;2022-09-09T02:26:26;18.20;99.40
8994;DHT22;4532;50.886;4.700;2022-09-09T02:28:58;18.20;99.30
8994;DHT22;4532;50.886;4.700;2022-09-09T02:31:28;18.20;99.30
8994;DHT22;4532;50.886;4.700;2022-09-09T02:34:00;18.20;99.30
8994;DHT22;4532;50.886;4.700;2022-09-09T02:36:31;18.20;99.30
8994;DHT22;4532;50.886;4.700;2022-09-09T02:39:00;18.20;99.30
8994;DHT22;4532;50.886;4.700;2022-09-09T02:41:33;18.20;99.30
8994;DHT22;4532;50.886;4.700;2022-09-09T02:44:08;18.20;99.40
8994;DHT22;4532;50.886;4.700;2022-09-09T02:49:28;18.20;99.40
8994;DHT22;4532;50.886;4.700;2022-09-09T02:52:17;18.20;99.30
8994;DHT22;4532;50.886;4.700;2022-09-09T02:54:45;18.20;99.40
8994;DHT22;4532;50.886;4.700;2022-09-09T02:57:19;18.20;99.40
8994;DHT22;4532;50.886;4.700;2022-09-09T02:59:48;18.20;99.40
8994;DHT22;4532;50.886;4.700;2022-09-09T03:02:15;18.20;99.40
8994;DHT22;4532;50.886;4.700;2022-09-09T03:04:43;18.20;99.50
8994;DHT22;4532;50.886;4.700;2022-09-09T03:07:11;18.20;99.40
8994;DHT22;4532;50.886;4.700;2022-09-09T03:09:41;18.20;99.70
8994;DHT22;4532;50.886;4.700;2022-09-09T03:12:11;18.10;99.50
8994;DHT22;4532;50.886;4.700;2022-09-09T03:14:43;18.20;99.70
8994;DHT22;4532;50.886;4.700;2022-09-09T03:17:13;18.20;99.60
8994;DHT22;4532;50.886;4.700;2022-09-09T03:19:42;18.20;99.40
8994;DHT22;4532;50.886;4.700;2022-09-09T03:22:13;18.20;99.50
8994;DHT22;4532;50.886;4.700;2022-09-09T03:24:43;18.20;99.50
8994;DHT22;4532;50.886;4.700;2022-09-09T03:27:15;18.20;99.40
8994;DHT22;4532;50.886;4.700;2022-09-09T03:29:43;18.20;99.50
8994;DHT22;4532;50.886;4.700;2022-09-09T03:32:12;18.20;99.70
8994;DHT22;4532;50.886;4.700;2022-09-09T03:34:44;18.20;99.40
8994;DHT22;4532;50.886;4.700;2022-09-09T03:37:11;18.20;99.50
8994;DHT22;4532;50.886;4.700;2022-09-09T03:39:41;18.20;99.40
8994;DHT22;4532;50.886;4.700;2022-09-09T03:42:08;18.20;99.60
8994;DHT22;4532;50.886;4.700;2022-09-09T03:44:36;18.20;99.60
8994;DHT22;4532;50.886;4.700;2022-09-09T03:47:03;18.20;99.50
8994;DHT22;4532;50.886;4.700;2022-09-09T03:49:30;18.20;99.50
8994;DHT22;4532;50.886;4.700;2022-09-09T03:51:57;18.20;99.90
8994;DHT22;4532;50.886;4.700;2022-09-09T03:54:25;18.20;99.90
8994;DHT22;4532;50.886;4.700;2022-09-09T03:56:53;18.20;99.60
8994;DHT22;4532;50.886;4.700;2022-09-09T03:59:20;18.20;99.60
8994;DHT22;4532;50.886;4.700;2022-09-09T04:01:50;18.30;99.70
8994;DHT22;4532;50.886;4.700;2022-09-09T04:04:20;18.20;99.60
8994;DHT22;4532;50.886;4.700;2022-09-09T04:06:49;18.20;99.60
8994;DHT22;4532;50.886;4.700;2022-09-09T04:09:19;18.20;99.50
8994;DHT22;4532;50.886;4.700;2022-09-09T04:11:52;18.20;99.60
8994;DHT22;4532;50.886;4.700;2022-09-09T04:14:22;18.20;99.60
8994;DHT22;4532;50.886;4.700;2022-09-09T04:16:49;18.20;99.60
8994;DHT22;4532;50.886;4.700;2022-09-09T04:19:19;18.20;99.80
8994;DHT22;4532;50.886;4.700;2022-09-09T04:21:46;18.20;99.60
8994;DHT22;4532;50.886;4.700;2022-09-09T04:24:15;18.20;99.60
8994;DHT22;4532;50.886;4.700;2022-09-09T04:26:45;18.20;99.60
8994;DHT22;4532;50.886;4.700;2022-09-09T04:29:16;18.20;99.60
8994;DHT22;4532;50.886;4.700;2022-09-09T04:31:45;18.10;99.60
8994;DHT22;4532;50.886;4.700;2022-09-09T04:34:12;18.10;99.60
8994;DHT22;4532;50.886;4.700;2022-09-09T04:36:40;18.10;99.70
8994;DHT22;4532;50.886;4.700;2022-09-09T04:39:09;18.10;99.70
8994;DHT22;4532;50.886;4.700;2022-09-09T04:41:39;18.10;99.70
8994;DHT22;4532;50.886;4.700;2022-09-09T04:44:08;18.20;99.80
8994;DHT22;4532;50.886;4.700;2022-09-09T04:46:36;18.20;99.80
8994;DHT22;4532;50.886;4.700;2022-09-09T04:49:07;18.10;99.80
8994;DHT22;4532;50.886;4.700;2022-09-09T04:51:42;18.20;99.80
8994;DHT22;4532;50.886;4.700;2022-09-09T04:54:12;18.20;99.90
8994;DHT22;4532;50.886;4.700;2022-09-09T04:56:39;18.20;99.80
8994;DHT22;4532;50.886;4.700;2022-09-09T04:59:10;18.20;99.80
8994;DHT22;4532;50.886;4.700;2022-09-09T05:01:42;18.20;99.80
8994;DHT22;4532;50.886;4.700;2022-09-09T05:04:09;18.20;99.80
8994;DHT22;4532;50.886;4.700;2022-09-09T05:06:39;18.10;99.80
8994;DHT22;4532;50.886;4.700;2022-09-09T05:09:11;18.10;99.80
8994;DHT22;4532;50.886;4.700;2022-09-09T05:11:41;18.10;99.90
8994;DHT22;4532;50.886;4.700;2022-09-09T05:14:11;18.10;99.80
8994;DHT22;4532;50.886;4.700;2022-09-09T05:16:39;18.10;99.80
8994;DHT22;4532;50.886;4.700;2022-09-09T05:19:06;18.10;99.80
8994;DHT22;4532;50.886;4.700;2022-09-09T05:21:35;18.10;99.90
8994;DHT22;4532;50.886;4.700;2022-09-09T05:24:02;18.10;99.80
8994;DHT22;4532;50.886;4.700;2022-09-09T05:26:34;18.10;99.90
8994;DHT22;4532;50.886;4.700;2022-09-09T05:29:01;18.10;99.90
8994;DHT22;4532;50.886;4.700;2022-09-09T05:31:33;18.10;99.90
8994;DHT22;4532;50.886;4.700;2022-09-09T05:34:00;18.10;99.90
8994;DHT22;4532;50.886;4.700;2022-09-09T05:36:28;18.10;99.90
8994;DHT22;4532;50.886;4.700;2022-09-09T05:39:00;18.10;99.90
8994;DHT22;4532;50.886;4.700;2022-09-09T05:41:32;18.10;99.90
8994;DHT22;4532;50.886;4.700;2022-09-09T05:44:02;18.10;99.90
8994;DHT22;4532;50.886;4.700;2022-09-09T05:46:30;18.10;99.90
8994;DHT22;4532;50.886;4.700;2022-09-09T05:48:59;18.10;99.90
8994;DHT22;4532;50.886;4.700;2022-09-09T05:51:28;18.20;99.90
8994;DHT22;4532;50.886;4.700;2022-09-09T05:53:57;18.20;99.90
8994;DHT22;4532;50.886;4.700;2022-09-09T05:56:28;18.20;99.90
8994;DHT22;4532;50.886;4.700;2022-09-09T05:58:56;18.20;99.90
8994;DHT22;4532;50.886;4.700;2022-09-09T06:01:31;18.30;99.90
8994;DHT22;4532;50.886;4.700;2022-09-09T06:04:02;18.30;99.90
8994;DHT22;4532;50.886;4.700;2022-09-09T06:06:32;18.30;99.90
8994;DHT22;4532;50.886;4.700;2022-09-09T06:09:05;18.40;99.90
8994;DHT22;4532;50.886;4.700;2022-09-09T06:11:37;18.40;99.90
8994;DHT22;4532;50.886;4.700;2022-09-09T06:14:05;18.40;99.90
8994;DHT22;4532;50.886;4.700;2022-09-09T06:16:32;18.40;99.90
8994;DHT22;4532;50.886;4.700;2022-09-09T06:19:01;18.50;99.90
8994;DHT22;4532;50.886;4.700;2022-09-09T06:21:35;18.50;99.90
8994;DHT22;4532;50.886;4.700;2022-09-09T06:24:06;18.50;99.90
8994;DHT22;4532;50.886;4.700;2022-09-09T06:26:39;18.50;99.90
8994;DHT22;4532;50.886;4.700;2022-09-09T06:29:10;18.60;99.90
8994;DHT22;4532;50.886;4.700;2022-09-09T06:31:37;18.60;99.90
8994;DHT22;4532;50.886;4.700;2022-09-09T06:34:08;18.60;99.90
8994;DHT22;4532;50.886;4.700;2022-09-09T06:36:40;18.70;99.90
8994;DHT22;4532;50.886;4.700;2022-09-09T06:39:15;18.70;99.90
8994;DHT22;4532;50.886;4.700;2022-09-09T06:41:44;18.70;99.90
8994;DHT22;4532;50.886;4.700;2022-09-09T06:44:20;18.70;99.90
8994;DHT22;4532;50.886;4.700;2022-09-09T06:46:49;18.70;99.90
8994;DHT22;4532;50.886;4.700;2022-09-09T06:49:17;18.70;99.90
8994;DHT22;4532;50.886;4.700;2022-09-09T06:51:48;18.80;99.90
8994;DHT22;4532;50.886;4.700;2022-09-09T06:54:20;18.80;99.90
8994;DHT22;4532;50.886;4.700;2022-09-09T06:56:53;18.80;99.90
8994;DHT22;4532;50.886;4.700;2022-09-09T06:59:20;18.90;99.90
8994;DHT22;4532;50.886;4.700;2022-09-09T07:01:47;18.90;99.90
8994;DHT22;4532;50.886;4.700;2022-09-09T07:04:23;18.90;99.90
8994;DHT22;4532;50.886;4.700;2022-09-09T07:06:52;18.90;99.90
8994;DHT22;4532;50.886;4.700;2022-09-09T07:09:22;18.90;99.90
8994;DHT22;4532;50.886;4.700;2022-09-09T07:11:53;19.00;99.90
8994;DHT22;4532;50.886;4.700;2022-09-09T07:14:26;19.00;99.90
8994;DHT22;4532;50.886;4.700;2022-09-09T07:16:58;19.00;99.90
8994;DHT22;4532;50.886;4.700;2022-09-09T07:19:28;19.00;99.90
8994;DHT22;4532;50.886;4.700;2022-09-09T07:21:55;19.00;99.90
8994;DHT22;4532;50.886;4.700;2022-09-09T07:24:22;19.00;99.90
8994;DHT22;4532;50.886;4.700;2022-09-09T07:26:52;19.00;99.90
8994;DHT22;4532;50.886;4.700;2022-09-09T07:29:20;19.10;99.90
8994;DHT22;4532;50.886;4.700;2022-09-09T07:31:50;19.10;99.90
8994;DHT22;4532;50.886;4.700;2022-09-09T07:34:17;19.10;99.90
8994;DHT22;4532;50.886;4.700;2022-09-09T07:36:47;19.10;99.90
8994;DHT22;4532;50.886;4.700;2022-09-09T07:39:15;19.10;99.90
8994;DHT22;4532;50.886;4.700;2022-09-09T07:41:47;19.10;99.90
8994;DHT22;4532;50.886;4.700;2022-09-09T07:44:20;19.10;99.90
8994;DHT22;4532;50.886;4.700;2022-09-09T07:46:50;19.10;99.90
8994;DHT22;4532;50.886;4.700;2022-09-09T07:49:18;19.10;99.90
8994;DHT22;4532;50.886;4.700;2022-09-09T07:51:54;19.20;99.90
8994;DHT22;4532;50.886;4.700;2022-09-09T07:54:24;19.20;99.90
8994;DHT22;4532;50.886;4.700;2022-09-09T07:56:55;19.20;99.90
8994;DHT22;4532;50.886;4.700;2022-09-09T07:59:24;19.20;99.90
8994;DHT22;4532;50.886;4.700;2022-09-09T08:01:55;19.20;99.90
8994;DHT22;4532;50.886;4.700;2022-09-09T08:04:26;19.30;99.90
8994;DHT22;4532;50.886;4.700;2022-09-09T08:07:00;19.30;99.90
8994;DHT22;4532;50.886;4.700;2022-09-09T08:09:28;19.30;99.90
8994;DHT22;4532;50.886;4.700;2022-09-09T08:11:56;19.30;99.90
8994;DHT22;4532;50.886;4.700;2022-09-09T08:14:24;19.30;99.90
8994;DHT22;4532;50.886;4.700;2022-09-09T08:16:54;19.40;99.90
8994;DHT22;4532;50.886;4.700;2022-09-09T08:19:22;19.40;99.90
8994;DHT22;4532;50.886;4.700;2022-09-09T08:21:50;19.50;99.90
8994;DHT22;4532;50.886;4.700;2022-09-09T08:24:20;19.50;99.90
8994;DHT22;4532;50.886;4.700;2022-09-09T08:26:52;19.50;99.90
8994;DHT22;4532;50.886;4.700;2022-09-09T08:29:25;19.60;99.90
8994;DHT22;4532;50.886;4.700;2022-09-09T08:31:54;19.60;99.90
8994;DHT22;4532;50.886;4.700;2022-09-09T08:34:21;19.70;99.90
8994;DHT22;4532;50.886;4.700;2022-09-09T08:36:54;19.80;99.90
8994;DHT22;4532;50.886;4.700;2022-09-09T08:39:22;19.80;99.90
8994;DHT22;4532;50.886;4.700;2022-09-09T08:50:33;20.00;99.90
8994;DHT22;4532;50.886;4.700;2022-09-09T08:53:14;20.00;99.90
8994;DHT22;4532;50.886;4.700;2022-09-09T08:58:43;20.00;99.90
8994;DHT22;4532;50.886;4.700;2022-09-09T09:03:51;20.00;99.90
8994;DHT22;4532;50.886;4.700;2022-09-09T09:06:35;19.90;99.90
8994;DHT22;4532;50.886;4.700;2022-09-09T09:12:01;19.90;99.90
8994;DHT22;4532;50.886;4.700;2022-09-09T09:14:31;19.90;99.90
8994;DHT22;4532;50.886;4.700;2022-09-09T09:17:06;19.90;99.90
8994;DHT22;4532;50.886;4.700;2022-09-09T09:19:40;19.90;99.90
8994;DHT22;4532;50.886;4.700;2022-09-09T09:22:36;19.90;99.90
8994;DHT22;4532;50.886;4.700;2022-09-09T09:25:15;20.00;99.90
8994;DHT22;4532;50.886;4.700;2022-09-09T09:30:59;20.00;99.90
8994;DHT22;4532;50.886;4.700;2022-09-09T09:36:14;20.00;99.90
8994;DHT22;4532;50.886;4.700;2022-09-09T09:38:56;20.00;99.90
8994;DHT22;4532;50.886;4.700;2022-09-09T09:41:45;20.00;99.90
8994;DHT22;4532;50.886;4.700;2022-09-09T09:44:30;20.00;99.90
8994;DHT22;4532;50.886;4.700;2022-09-09T09:47:14;20.10;99.90
8994;DHT22;4532;50.886;4.700;2022-09-09T09:49:58;20.10;99.90
8994;DHT22;4532;50.886;4.700;2022-09-09T09:52:34;20.10;99.90
8994;DHT22;4532;50.886;4.700;2022-09-09T09:55:04;20.10;99.90
8994;DHT22;4532;50.886;4.700;2022-09-09T09:57:39;20.10;99.90
8994;DHT22;4532;50.886;4.700;2022-09-09T10:00:18;20.10;99.90
8994;DHT22;4532;50.886;4.700;2022-09-09T10:02:48;20.10;99.90
8994;DHT22;4532;50.886;4.700;2022-09-09T10:05:22;20.10;99.90
8994;DHT22;4532;50.886;4.700;2022-09-09T10:19:36;20.20;99.90
8994;DHT22;4532;50.886;4.700;2022-09-09T10:28:07;20.20;99.90
8994;DHT22;4532;50.886;4.700;2022-09-09T10:31:00;20.20;99.90
8994;DHT22;4532;50.886;4.700;2022-09-09T10:36:26;20.10;99.90
8994;DHT22;4532;50.886;4.700;2022-09-09T10:56:12;20.10;99.90
8994;DHT22;4532;50.886;4.700;2022-09-09T10:58:50;20.10;99.90
8994;DHT22;4532;50.886;4.700;2022-09-09T11:01:32;20.10;99.90
8994;DHT22;4532;50.886;4.700;2022-09-09T11:04:17;20.10;99.90
8994;DHT22;4532;50.886;4.700;2022-09-09T11:06:50;20.10;99.90
8994;DHT22;4532;50.886;4.700;2022-09-09T11:09:26;20.10;99.90
8994;DHT22;4532;50.886;4.700;2022-09-09T11:11:59;20.20;99.90
8994;DHT22;4532;50.886;4.700;2022-09-09T11:14:43;20.30;99.90
8994;DHT22;4532;50.886;4.700;2022-09-09T11:17:18;20.30;99.90
8994;DHT22;4532;50.886;4.700;2022-09-09T11:19:49;20.40;99.90
8994;DHT22;4532;50.886;4.700;2022-09-09T11:25:18;20.40;99.90
8994;DHT22;4532;50.886;4.700;2022-09-09T11:41:46;20.80;99.90
8994;DHT22;4532;50.886;4.700;2022-09-09T11:44:18;20.80;99.90
8994;DHT22;4532;50.886;4.700;2022-09-09T11:46:53;20.80;99.90
8994;DHT22;4532;50.886;4.700;2022-09-09T11:49:41;20.80;99.90
8994;DHT22;4532;50.886;4.700;2022-09-09T11:52:35;20.90;99.90
8994;DHT22;4532;50.886;4.700;2022-09-09T11:58:00;21.00;99.90
8994;DHT22;4532;50.886;4.700;2022-09-09T12:00:35;21.00;99.90
8994;DHT22;4532;50.886;4.700;2022-09-09T12:06:08;21.10;99.90
8994;DHT22;4532;50.886;4.700;2022-09-09T12:08:45;21.10;99.90
8994;DHT22;4532;50.886;4.700;2022-09-09T12:11:27;21.10;99.90
8994;DHT22;4532;50.886;4.700;2022-09-09T12:13:59;21.10;99.90
8994;DHT22;4532;50.886;4.700;2022-09-09T12:16:34;21.20;99.90
8994;DHT22;4532;50.886;4.700;2022-09-09T12:19:15;21.20;99.90
8994;DHT22;4532;50.886;4.700;2022-09-09T12:22:11;21.20;99.90
8994;DHT22;4532;50.886;4.700;2022-09-09T12:27:42;21.30;99.90
8994;DHT22;4532;50.886;4.700;2022-09-09T12:30:18;21.30;99.90
8994;DHT22;4532;50.886;4.700;2022-09-09T12:33:01;21.20;99.90
8994;DHT22;4532;50.886;4.700;2022-09-09T12:35:28;21.20;99.90
8994;DHT22;4532;50.886;4.700;2022-09-09T12:38:02;21.30;99.90
8994;DHT22;4532;50.886;4.700;2022-09-09T12:40:33;21.30;99.90
8994;DHT22;4532;50.886;4.700;2022-09-09T12:43:20;21.30;99.90
8994;DHT22;4532;50.886;4.700;2022-09-09T12:45:52;21.30;99.90
8994;DHT22;4532;50.886;4.700;2022-09-09T12:48:40;21.30;99.90
8994;DHT22;4532;50.886;4.700;2022-09-09T12:51:39;21.40;99.90
8994;DHT22;4532;50.886;4.700;2022-09-09T12:54:13;21.40;99.90
8994;DHT22;4532;50.886;4.700;2022-09-09T12:56:45;21.40;99.90
8994;DHT22;4532;50.886;4.700;2022-09-09T12:59:25;21.40;99.90
8994;DHT22;4532;50.886;4.700;2022-09-09T13:01:56;21.40;99.90
8994;DHT22;4532;50.886;4.700;2022-09-09T13:04:23;21.40;99.90
8994;DHT22;4532;50.886;4.700;2022-09-09T13:06:51;21.40;99.90
8994;DHT22;4532;50.886;4.700;2022-09-09T13:09:19;21.40;99.90
8994;DHT22;4532;50.886;4.700;2022-09-09T13:11:53;21.40;99.90
8994;DHT22;4532;50.886;4.700;2022-09-09T13:14:32;21.40;99.90
8994;DHT22;4532;50.886;4.700;2022-09-09T13:17:05;21.50;99.90
8994;DHT22;4532;50.886;4.700;2022-09-09T13:19:38;21.40;99.90
8994;DHT22;4532;50.886;4.700;2022-09-09T13:22:37;21.40;99.90
8994;DHT22;4532;50.886;4.700;2022-09-09T13:27:41;21.50;99.90
8994;DHT22;4532;50.886;4.700;2022-09-09T13:30:44;21.50;99.90
8994;DHT22;4532;50.886;4.700;2022-09-09T13:33:36;21.50;99.90
8994;DHT22;4532;50.886;4.700;2022-09-09T13:36:07;21.50;99.90
8994;DHT22;4532;50.886;4.700;2022-09-09T13:38:38;21.50;99.90
8994;DHT22;4532;50.886;4.700;2022-09-09T13:41:10;21.60;99.90
8994;DHT22;4532;50.886;4.700;2022-09-09T13:43:43;21.60;99.90
8994;DHT22;4532;50.886;4.700;2022-09-09T13:46:36;21.60;99.90
8994;DHT22;4532;50.886;4.700;2022-09-09T13:51:40;21.70;99.90
8994;DHT22;4532;50.886;4.700;2022-09-09T13:54:12;21.80;99.90
8994;DHT22;4532;50.886;4.700;2022-09-09T13:56:40;21.70;99.90
8994;DHT22;4532;50.886;4.700;2022-09-09T13:59:17;21.70;99.90
8994;DHT22;4532;50.886;4.700;2022-09-09T14:01:46;21.80;99.90
8994;DHT22;4532;50.886;4.700;2022-09-09T14:04:17;21.80;99.90
8994;DHT22;4532;50.886;4.700;2022-09-09T14:06:46;21.70;99.90
8994;DHT22;4532;50.886;4.700;2022-09-09T14:09:17;21.70;99.90
8994;DHT22;4532;50.886;4.700;2022-09-09T14:11:47;21.70;99.90
8994;DHT22;4532;50.886;4.700;2022-09-09T14:14:14;21.70;99.50
8994;DHT22;4532;50.886;4.700;2022-09-09T14:16:41;21.70;99.90
8994;DHT22;4532;50.886;4.700;2022-09-09T14:19:09;21.70;99.90
8994;DHT22;4532;50.886;4.700;2022-09-09T14:21:39;21.80;99.90
8994;DHT22;4532;50.886;4.700;2022-09-09T14:24:12;21.80;99.90
8994;DHT22;4532;50.886;4.700;2022-09-09T14:26:39;21.90;99.90
8994;DHT22;4532;50.886;4.700;2022-09-09T14:29:11;21.90;99.90
8994;DHT22;4532;50.886;4.700;2022-09-09T14:31:40;21.90;99.90
8994;DHT22;4532;50.886;4.700;2022-09-09T14:34:08;21.80;99.90
8994;DHT22;4532;50.886;4.700;2022-09-09T14:36:38;21.90;99.90
8994;DHT22;4532;50.886;4.700;2022-09-09T14:39:08;21.90;99.90
8994;DHT22;4532;50.886;4.700;2022-09-09T14:41:35;22.00;99.90
8994;DHT22;4532;50.886;4.700;2022-09-09T14:44:05;22.00;99.90
8994;DHT22;4532;50.886;4.700;2022-09-09T14:46:32;22.10;99.90
8994;DHT22;4532;50.886;4.700;2022-09-09T14:49:00;22.10;99.90
8994;DHT22;4532;50.886;4.700;2022-09-09T14:51:27;22.10;99.90
8994;DHT22;4532;50.886;4.700;2022-09-09T14:53:57;22.10;99.90
8994;DHT22;4532;50.886;4.700;2022-09-09T14:56:30;22.10;99.90
8994;DHT22;4532;50.886;4.700;2022-09-09T14:59:01;22.10;99.70
8994;DHT22;4532;50.886;4.700;2022-09-09T15:01:31;22.10;99.80
8994;DHT22;4532;50.886;4.700;2022-09-09T15:04:03;22.10;99.80
8994;DHT22;4532;50.886;4.700;2022-09-09T15:06:33;22.10;99.60
8994;DHT22;4532;50.886;4.700;2022-09-09T15:09:01;22.10;99.90
8994;DHT22;4532;50.886;4.700;2022-09-09T15:11:35;22.10;99.90
8994;DHT22;4532;50.886;4.700;2022-09-09T15:14:06;22.20;99.90
8994;DHT22;4532;50.886;4.700;2022-09-09T15:16:34;22.30;99.90
8994;DHT22;4532;50.886;4.700;2022-09-09T15:19:04;22.20;99.90
8994;DHT22;4532;50.886;4.700;2022-09-09T15:21:36;22.20;99.90
8994;DHT22;4532;50.886;4.700;2022-09-09T15:24:04;22.30;99.90
8994;DHT22;4532;50.886;4.700;2022-09-09T15:26:38;22.30;99.90
8994;DHT22;4532;50.886;4.700;2022-09-09T15:29:06;22.40;99.80
8994;DHT22;4532;50.886;4.700;2022-09-09T15:31:37;22.40;99.90
8994;DHT22;4532;50.886;4.700;2022-09-09T15:34:07;22.50;99.80
8994;DHT22;4532;50.886;4.700;2022-09-09T15:36:40;22.50;99.00
8994;DHT22;4532;50.886;4.700;2022-09-09T15:39:12;22.50;98.80
8994;DHT22;4532;50.886;4.700;2022-09-09T15:41:40;22.50;99.00
8994;DHT22;4532;50.886;4.700;2022-09-09T15:44:12;22.50;99.80
8994;DHT22;4532;50.886;4.700;2022-09-09T15:46:45;22.50;99.90
8994;DHT22;4532;50.886;4.700;2022-09-09T15:49:16;22.50;99.30
8994;DHT22;4532;50.886;4.700;2022-09-09T15:51:52;22.60;99.50
8994;DHT22;4532;50.886;4.700;2022-09-09T15:54:21;22.60;99.80
8994;DHT22;4532;50.886;4.700;2022-09-09T15:56:58;22.70;99.30
8994;DHT22;4532;50.886;4.700;2022-09-09T15:59:29;22.70;99.50
8994;DHT22;4532;50.886;4.700;2022-09-09T16:01:59;22.70;99.70
8994;DHT22;4532;50.886;4.700;2022-09-09T16:04:30;22.70;99.30
8994;DHT22;4532;50.886;4.700;2022-09-09T16:07:06;22.70;99.40
8994;DHT22;4532;50.886;4.700;2022-09-09T16:09:37;22.70;98.80
8994;DHT22;4532;50.886;4.700;2022-09-09T16:12:05;22.70;99.70
8994;DHT22;4532;50.886;4.700;2022-09-09T16:14:36;22.70;99.00
8994;DHT22;4532;50.886;4.700;2022-09-09T16:17:04;22.60;98.50
8994;DHT22;4532;50.886;4.700;2022-09-09T16:19:32;22.60;98.60
8994;DHT22;4532;50.886;4.700;2022-09-09T16:22:01;22.60;99.00
8994;DHT22;4532;50.886;4.700;2022-09-09T16:24:31;22.60;99.30
8994;DHT22;4532;50.886;4.700;2022-09-09T16:26:59;22.50;98.60
8994;DHT22;4532;50.886;4.700;2022-09-09T16:29:29;22.50;98.70
8994;DHT22;4532;50.886;4.700;2022-09-09T16:31:56;22.50;98.30
8994;DHT22;4532;50.886;4.700;2022-09-09T16:34:29;22.50;99.00
8994;DHT22;4532;50.886;4.700;2022-09-09T16:36:59;22.40;98.80
8994;DHT22;4532;50.886;4.700;2022-09-09T16:39:28;22.40;98.50
8994;DHT22;4532;50.886;4.700;2022-09-09T16:42:00;22.40;98.90
8994;DHT22;4532;50.886;4.700;2022-09-09T16:44:28;22.40;98.90
8994;DHT22;4532;50.886;4.700;2022-09-09T16:46:55;22.30;98.70
8994;DHT22;4532;50.886;4.700;2022-09-09T16:49:29;22.30;99.00
8994;DHT22;4532;50.886;4.700;2022-09-09T16:51:58;22.20;98.90
8994;DHT22;4532;50.886;4.700;2022-09-09T16:54:26;22.20;98.80
8994;DHT22;4532;50.886;4.700;2022-09-09T16:56:54;22.20;98.90
8994;DHT22;4532;50.886;4.700;2022-09-09T16:59:24;22.20;98.90
8994;DHT22;4532;50.886;4.700;2022-09-09T17:01:51;22.10;99.10
8994;DHT22;4532;50.886;4.700;2022-09-09T17:04:21;22.10;99.30
8994;DHT22;4532;50.886;4.700;2022-09-09T17:06:52;22.10;99.50
8994;DHT22;4532;50.886;4.700;2022-09-09T17:09:20;22.00;99.60
8994;DHT22;4532;50.886;4.700;2022-09-09T17:11:52;22.10;99.70
8994;DHT22;4532;50.886;4.700;2022-09-09T17:14:22;22.10;99.60
8994;DHT22;4532;50.886;4.700;2022-09-09T17:16:49;22.00;99.60
8994;DHT22;4532;50.886;4.700;2022-09-09T17:19:19;22.00;99.50
8994;DHT22;4532;50.886;4.700;2022-09-09T17:21:46;22.00;99.50
8994;DHT22;4532;50.886;4.700;2022-09-09T17:24:38;21.90;99.40
8994;DHT22;4532;50.886;4.700;2022-09-09T17:27:07;21.90;99.40
8994;DHT22;4532;50.886;4.700;2022-09-09T17:29:37;21.90;99.50
8994;DHT22;4532;50.886;4.700;2022-09-09T17:32:05;21.80;99.40
8994;DHT22;4532;50.886;4.700;2022-09-09T17:34:35;21.80;99.80
8994;DHT22;4532;50.886;4.700;2022-09-09T17:37:03;21.70;99.40
8994;DHT22;4532;50.886;4.700;2022-09-09T17:39:33;21.70;99.50
8994;DHT22;4532;50.886;4.700;2022-09-09T17:42:00;21.70;99.70
8994;DHT22;4532;50.886;4.700;2022-09-09T17:44:30;21.70;99.60
8994;DHT22;4532;50.886;4.700;2022-09-09T17:46:59;21.60;99.60
8994;DHT22;4532;50.886;4.700;2022-09-09T17:49:29;21.60;99.70
8994;DHT22;4532;50.886;4.700;2022-09-09T17:51:59;21.60;99.70
8994;DHT22;4532;50.886;4.700;2022-09-09T17:54:26;21.60;99.80
8994;DHT22;4532;50.886;4.700;2022-09-09T17:56:56;21.50;99.70
8994;DHT22;4532;50.886;4.700;2022-09-09T17:59:27;21.50;99.60
8994;DHT22;4532;50.886;4.700;2022-09-09T18:01:54;21.50;99.50
8994;DHT22;4532;50.886;4.700;2022-09-09T18:04:22;21.50;99.60
8994;DHT22;4532;50.886;4.700;2022-09-09T18:06:51;21.40;99.60
8994;DHT22;4532;50.886;4.700;2022-09-09T18:09:22;21.40;99.60
8994;DHT22;4532;50.886;4.700;2022-09-09T18:11:56;21.40;99.70
8994;DHT22;4532;50.886;4.700;2022-09-09T18:14:33;21.30;99.60
8994;DHT22;4532;50.886;4.700;2022-09-09T18:17:02;21.30;99.60
8994;DHT22;4532;50.886;4.700;2022-09-09T18:19:30;21.30;99.60
8994;DHT22;4532;50.886;4.700;2022-09-09T18:21:59;21.20;99.60
8994;DHT22;4532;50.886;4.700;2022-09-09T18:24:31;21.20;99.60
8994;DHT22;4532;50.886;4.700;2022-09-09T18:27:02;21.10;99.50
8994;DHT22;4532;50.886;4.700;2022-09-09T18:29:33;21.10;99.50
8994;DHT22;4532;50.886;4.700;2022-09-09T18:32:01;21.10;99.50
8994;DHT22;4532;50.886;4.700;2022-09-09T18:34:32;21.00;99.60
8994;DHT22;4532;50.886;4.700;2022-09-09T18:37:02;21.00;99.50
8994;DHT22;4532;50.886;4.700;2022-09-09T18:39:31;21.00;99.40
8994;DHT22;4532;50.886;4.700;2022-09-09T18:41:59;20.90;99.30
8994;DHT22;4532;50.886;4.700;2022-09-09T18:44:34;20.90;99.40
8994;DHT22;4532;50.886;4.700;2022-09-09T18:47:04;20.80;99.30
8994;DHT22;4532;50.886;4.700;2022-09-09T18:49:36;20.80;99.40